Terminal Aerodrome Forecast
Issued by NWS

Home | Current Version | Previous Version | Text Only | Print | Product List | Glossary On
Versions: 1 2 3 4 5 6 7 8 9 10 11 12 13 14 15 16 17 18 19
097
FTUS43 KDLH 260540
TAFBRD
TAF
KBRD 260540Z 2606/2706 21004KT 1 1/2SM BR OVC024
     FM260800 VRB04KT 6SM -SN OVC015
     FM261200 29004KT 4SM -SN OVC008
     FM261600 30008KT P6SM BKN025
     FM261800 30010KT P6SM SCT020
     FM270000 28004KT P6SM SCT025 BKN100=

USA.gov is the U.S. government's official web portal to all federal, state and local government web resources and services.